Time;durP1;ratioP1;P1;durP2;ratioP2;P2;SDS_P1;SDS_P2;PMS_P1;PMS_P2;Temp;Humidity;BMP_temperature;BMP_pressure;BME280_temperature;BME280_humidity;BME280_pressure;Samples;Min_cycle;Max_cycle;Signal;HPM_P1;HPM_P2
2023/12/16 00:05:22;;;;;;;39.20;22.90;;;;;;;1.48;100.00;100297.15;437458;1250;108214;-41
2023/12/16 00:15:29;;;;;;;41.70;21.70;;;;;;;1.56;100.00;100312.65;437435;1250;98318;-40
2023/12/16 00:25:36;;;;;;;52.70;27.30;;;;;;;1.59;100.00;100321.11;437413;1248;112942;-40
2023/12/16 00:35:44;;;;;;;54.10;27.30;;;;;;;1.55;100.00;100315.00;437398;1251;107511;-40
2023/12/16 00:45:52;;;;;;;42.30;25.20;;;;;;;1.53;100.00;100318.08;436999;1250;585675;-40
2023/12/16 00:55:58;;;;;;;42.70;22.60;;;;;;;1.61;100.00;100321.42;437436;1250;110010;-40
2023/12/16 01:06:06;;;;;;;42.40;22.10;;;;;;;1.71;100.00;100312.75;437336;1248;107679;-40
2023/12/16 01:16:13;;;;;;;49.10;24.40;;;;;;;1.78;100.00;100310.71;437398;1251;97970;-40
2023/12/16 01:26:20;;;;;;;55.50;28.30;;;;;;;1.78;100.00;100318.06;437518;1251;108241;-40
2023/12/16 01:36:27;;;;;;;59.20;27.90;;;;;;;1.73;100.00;100327.14;437569;1260;98009;-40
2023/12/16 01:56:42;;;;;;;41.50;23.90;;;;;;;1.79;100.00;100336.90;437517;1251;106767;-40
2023/12/16 02:06:50;;;;;;;54.50;24.60;;;;;;;1.90;100.00;100330.45;437411;1250;98646;-38
2023/12/16 02:16:57;;;;;;;56.60;26.10;;;;;;;1.94;100.00;100318.92;437494;1250;106845;-40
2023/12/16 02:27:03;;;;;;;67.40;29.80;;;;;;;1.94;100.00;100332.02;438445;1246;99310;-40
2023/12/16 02:37:12;;;;;;;56.40;27.10;;;;;;;1.87;100.00;100333.46;438202;1248;111211;-40
2023/12/16 02:47:19;;;;;;;51.80;26.70;;;;;;;1.89;100.00;100333.81;438122;1244;107713;-39
2023/12/16 02:57:27;;;;;;;46.80;25.10;;;;;;;2.00;100.00;100341.67;438077;1250;99198;-39
2023/12/16 03:07:34;;;;;;;49.10;22.30;;;;;;;2.12;100.00;100370.71;438284;1244;111327;-39
2023/12/16 03:17:43;;;;;;;39.90;19.90;;;;;;;2.21;100.00;100369.80;438071;1248;108512;-39
2023/12/16 03:37:57;;;;;;;51.10;24.20;;;;;;;2.25;100.00;100366.98;438166;1250;108350;-40
2023/12/16 03:48:05;;;;;;;49.00;25.80;;;;;;;2.22;100.00;100352.64;438196;1244;99220;-39
2023/12/16 03:58:12;;;;;;;39.70;22.30;;;;;;;2.25;100.00;100356.73;438142;1244;110948;-40
2023/12/16 04:18:24;;;;;;;44.50;18.80;;;;;;;2.49;100.00;100353.95;438030;1251;99212;-39
2023/12/16 04:28:31;;;;;;;42.60;21.10;;;;;;;2.55;100.00;100346.79;437975;1249;107296;-39
2023/12/16 04:38:38;;;;;;;44.10;19.10;;;;;;;2.64;100.00;100367.23;438016;1244;98877;-39
2023/12/16 04:48:44;;;;;;;54.50;24.30;;;;;;;2.67;100.00;100380.36;438265;1260;111826;-39
2023/12/16 04:58:51;;;;;;;45.40;23.40;;;;;;;2.60;100.00;100387.27;438139;1250;108067;-40
2023/12/16 05:08:58;;;;;;;44.90;22.80;;;;;;;2.57;100.00;100388.74;438193;1250;99240;-40
2023/12/16 05:19:06;;;;;;;46.20;22.70;;;;;;;2.62;100.00;100386.06;437942;1245;107885;-40
2023/12/16 05:29:13;;;;;;;46.90;18.20;;;;;;;2.69;100.00;100399.00;438124;1247;98290;-38
2023/12/16 05:39:20;;;;;;;40.70;21.00;;;;;;;2.74;100.00;100425.34;438034;1250;111166;-39
2023/12/16 05:49:28;;;;;;;33.90;18.80;;;;;;;2.83;100.00;100433.93;438027;1250;107336;-39
2023/12/16 06:09:40;;;;;;;40.90;19.40;;;;;;;2.80;100.00;100441.73;438244;1248;108707;-38
2023/12/16 06:19:47;;;;;;;43.00;20.00;;;;;;;2.86;100.00;100444.15;438090;1249;99214;-40
2023/12/16 06:29:54;;;;;;;40.50;21.00;;;;;;;2.93;100.00;100423.48;438108;1249;112294;-38
2023/12/16 06:40:00;;;;;;;29.30;18.30;;;;;;;3.02;100.00;100417.61;438074;1249;108112;-40
2023/12/16 06:50:09;;;;;;;38.40;18.50;;;;;;;3.06;100.00;100430.86;438210;1250;99282;-38
2023/12/16 07:00:16;;;;;;;46.40;22.00;;;;;;;3.08;100.00;100430.66;438230;1250;109069;-40
2023/12/16 07:10:23;;;;;;;48.50;21.80;;;;;;;3.05;100.00;100447.30;438167;1249;99283;-40
2023/12/16 07:20:31;;;;;;;40.40;18.10;;;;;;;3.08;100.00;100453.15;438080;1251;112410;-38
2023/12/16 07:30:37;;;;;;;39.60;16.70;;;;;;;3.20;100.00;100455.02;438189;1245;109965;-40
2023/12/16 07:40:44;;;;;;;34.30;15.50;;;;;;;3.32;100.00;100456.36;438125;1249;98842;-40
2023/12/16 07:50:53;;;;;;;32.40;14.90;;;;;;;3.43;100.00;100469.20;438034;1249;107619;-40
2023/12/16 08:01:00;;;;;;;35.80;16.10;;;;;;;3.51;100.00;100476.45;438155;1251;99234;-38
2023/12/16 08:11:08;;;;;;;49.10;20.30;;;;;;;3.56;100.00;100486.25;438196;1250;112307;-40
2023/12/16 08:21:17;;;;;;;37.80;18.80;;;;;;;3.53;100.00;100489.36;438096;1244;107586;-40
2023/12/16 08:31:24;;;;;;;39.70;20.50;;;;;;;3.56;100.00;100488.73;438203;1249;98687;-40
2023/12/16 08:41:31;;;;;;;40.80;17.90;;;;;;;3.62;100.00;100494.44;438237;1245;107458;-39
2023/12/16 08:51:37;;;;;;;44.80;19.20;;;;;;;3.65;100.00;100497.63;438058;1245;97934;-38
2023/12/16 09:01:45;;;;;;;35.30;19.50;;;;;;;3.80;100.00;100495.61;437945;1250;112081;-39
2023/12/16 09:11:52;;;;;;;33.20;15.80;;;;;;;3.94;100.00;100503.22;438092;1249;108513;-39
2023/12/16 09:21:58;;;;;;;28.30;17.00;;;;;;;4.03;100.00;100522.08;438011;1250;99234;-39
2023/12/16 09:52:19;;;;;;;30.40;16.90;;;;;;;4.23;100.00;100520.59;438159;1249;111904;-39
2023/12/16 10:02:27;;;;;;;28.00;15.40;;;;;;;4.36;100.00;100519.56;438033;1245;108669;-39
2023/12/16 10:12:36;;;;;;;40.50;17.90;;;;;;;4.47;100.00;100523.51;438043;1250;99214;-39
2023/12/16 10:22:42;;;;;;;39.90;16.10;;;;;;;4.48;100.00;100519.13;438177;1250;110402;-40
2023/12/16 10:32:49;;;;;;;39.30;16.80;;;;;;;4.52;100.00;100503.89;437994;1250;97966;-39
2023/12/16 10:42:56;;;;;;;32.80;17.50;;;;;;;4.61;100.00;100505.94;437784;1249;111175;-39
2023/12/16 10:53:06;;;;;;;24.80;15.10;;;;;;;4.66;100.00;100500.32;438064;1245;108162;-42
2023/12/16 11:03:24;;;;;;;37.80;18.40;;;;;;;4.71;100.00;100490.52;438173;1245;99240;-39
2023/12/16 11:13:31;;;;;;;152.70;67.00;;;;;;;4.73;100.00;100467.13;438188;1250;107331;-40
2023/12/16 11:23:44;;;;;;;45.90;21.00;;;;;;;4.92;100.00;100461.04;438113;1249;99237;-40
2023/12/16 11:33:51;;;;;;;27.40;14.40;;;;;;;5.10;100.00;100460.53;437998;1250;110731;-39
2023/12/16 11:43:59;;;;;;;27.60;15.60;;;;;;;5.26;100.00;100450.39;437919;1250;108594;-41
2023/12/16 11:54:08;;;;;;;31.30;17.70;;;;;;;5.32;100.00;100446.52;438050;1249;99049;-38
2023/12/16 12:04:15;;;;;;;24.00;13.10;;;;;;;5.15;100.00;100440.09;438050;1251;107535;-39
2023/12/16 12:24:29;;;;;;;26.40;14.20;;;;;;;5.36;100.00;100434.70;438043;1248;111008;-40
2023/12/16 12:34:37;;;;;;;26.40;15.70;;;;;;;5.40;100.00;100426.29;438099;1249;107331;-39
2023/12/16 12:44:51;;;;;;;25.80;14.20;;;;;;;5.32;100.00;100414.70;437926;1245;419612;-40
2023/12/16 13:05:03;;;;;;;27.30;15.30;;;;;;;5.09;100.00;100412.02;438077;1258;99208;-39
2023/12/16 13:15:08;;;;;;;30.20;15.90;;;;;;;5.05;100.00;100401.42;438024;1251;111632;-39
2023/12/16 13:25:15;;;;;;;28.70;17.10;;;;;;;5.05;100.00;100391.44;438072;1254;108675;-40
2023/12/16 13:35:22;;;;;;;38.30;19.90;;;;;;;4.96;100.00;100396.66;438037;1251;99241;-40
2023/12/16 13:45:29;;;;;;;35.00;17.40;;;;;;;4.86;100.00;100400.70;438265;1258;108104;-39
2023/12/16 13:55:36;;;;;;;36.00;19.40;;;;;;;4.81;100.00;100400.61;438145;1251;98829;-39
2023/12/16 14:05:44;;;;;;;30.80;15.30;;;;;;;4.85;100.00;100405.30;438011;1254;111074;-38
2023/12/16 14:15:50;;;;;;;40.80;23.30;;;;;;;4.82;100.00;100386.55;438061;1250;107630;-41
2023/12/16 14:25:57;;;;;;;34.70;20.50;;;;;;;4.83;100.00;100378.95;438082;1258;98823;-40
2023/12/16 14:36:03;;;;;;;44.00;24.50;;;;;;;4.78;100.00;100386.90;438037;1245;108650;-39
2023/12/16 14:46:10;;;;;;;53.60;30.80;;;;;;;4.64;100.00;100397.95;438177;1249;99206;-40
2023/12/16 15:06:24;;;;;;;58.40;28.90;;;;;;;4.43;100.00;100373.40;438020;1250;107515;-39
2023/12/16 15:16:37;;;;;;;56.50;31.30;;;;;;;4.36;100.00;100375.81;438158;1251;99330;-40
2023/12/16 15:26:58;;;;;;;44.50;26.70;;;;;;;4.24;100.00;100373.62;438025;1258;106983;-39
2023/12/16 15:37:07;;;;;;;34.30;21.40;;;;;;;4.23;100.00;100370.61;437979;1258;99203;-39
2023/12/16 15:47:24;;;;;;;57.80;31.40;;;;;;;4.24;100.00;100353.02;438067;1247;112855;-39
2023/12/16 15:57:32;;;;;;;63.10;33.90;;;;;;;4.10;100.00;100349.54;438179;1258;107146;-38
2023/12/16 16:27:54;;;;;;;33.30;18.90;;;;;;;4.09;100.00;100340.53;437913;1250;99221;-38
2023/12/16 16:38:01;;;;;;;25.50;16.70;;;;;;;4.15;100.00;100342.04;438019;1249;112156;-40
2023/12/16 16:48:07;;;;;;;33.30;17.20;;;;;;;4.22;100.00;100350.27;437996;1244;108355;-39
2023/12/16 16:58:13;;;;;;;44.40;22.90;;;;;;;4.21;100.00;100352.45;438194;1250;97945;-39
2023/12/16 17:08:20;;;;;;;33.70;17.40;;;;;;;4.13;100.00;100348.73;438204;1258;108565;-40
2023/12/16 17:18:27;;;;;;;28.50;16.80;;;;;;;4.12;100.00;100352.11;438112;1245;98008;-40
2023/12/16 17:38:43;;;;;;;24.90;15.20;;;;;;;3.93;100.00;100348.18;438022;1244;108114;-39
2023/12/16 17:48:50;;;;;;;27.60;18.90;;;;;;;3.81;100.00;100360.50;438148;1244;99211;-38
2023/12/16 18:09:04;;;;;;;42.50;26.80;;;;;;;3.48;100.00;100364.23;438332;1250;99198;-39
2023/12/16 18:19:11;;;;;;;29.10;17.50;;;;;;;3.42;100.00;100366.72;438108;1251;111675;-40
2023/12/16 18:29:18;;;;;;;38.60;16.80;;;;;;;3.49;100.00;100362.45;438032;1250;109210;-40
2023/12/16 18:39:26;;;;;;;40.70;17.80;;;;;;;3.56;100.00;100366.47;437935;1249;99238;-39
2023/12/16 18:49:33;;;;;;;54.90;22.20;;;;;;;3.57;100.00;100366.39;438095;1251;109361;-40
2023/12/16 18:59:41;;;;;;;33.10;17.30;;;;;;;3.56;100.00;100367.33;438209;1244;97977;-40
2023/12/16 19:09:48;;;;;;;22.70;14.30;;;;;;;3.61;100.00;100362.91;438143;1245;111048;-40
2023/12/16 19:30:02;;;;;;;30.70;15.20;;;;;;;3.87;100.00;100356.12;438165;1251;99233;-41
2023/12/16 19:40:11;;;;;;;34.00;14.30;;;;;;;3.91;100.00;100346.13;438258;1249;107685;-40
2023/12/16 19:50:17;;;;;;;37.40;17.90;;;;;;;3.87;100.00;100341.80;438184;1250;99314;-40
2023/12/16 20:10:29;;;;;;;21.20;11.00;;;;;;;4.00;100.00;100359.02;438453;1251;109172;-40
2023/12/16 20:20:36;;;;;;;19.20;10.10;;;;;;;4.10;100.00;100357.20;438140;1249;98331;-40
2023/12/16 20:30:43;;;;;;;29.90;13.00;;;;;;;4.14;100.00;100345.87;437867;1249;106692;-40
2023/12/16 20:40:50;;;;;;;17.70;9.50;;;;;;;4.14;100.00;100320.13;438069;1249;98804;-40
2023/12/16 20:50:57;;;;;;;20.60;9.50;;;;;;;4.22;100.00;100291.80;438115;1249;112001;-39
2023/12/16 21:11:10;;;;;;;16.50;7.10;;;;;;;4.22;100.00;100276.05;437984;1244;99230;-39
2023/12/16 21:21:15;;;;;;;22.60;11.10;;;;;;;4.25;100.00;100260.27;438064;1251;111689;-40
2023/12/16 21:31:23;;;;;;;33.70;20.00;;;;;;;4.23;100.00;100260.84;438126;1250;98820;-41
2023/12/16 21:41:29;;;;;;;15.70;8.60;;;;;;;4.17;99.80;100266.09;438069;1245;113005;-39
2023/12/16 21:51:37;;;;;;;13.00;7.90;;;;;;;4.26;99.56;100266.13;437984;1249;109378;-39
2023/12/16 22:01:45;;;;;;;28.20;12.30;;;;;;;4.32;99.32;100262.95;438067;1251;99228;-39
2023/12/16 22:11:51;;;;;;;33.10;14.40;;;;;;;4.26;99.21;100268.57;438075;1250;108268;-39
2023/12/16 22:21:59;;;;;;;19.10;10.20;;;;;;;4.28;99.05;100288.60;438102;1258;99275;-38
2023/12/16 22:32:06;;;;;;;18.40;9.40;;;;;;;4.36;99.03;100301.12;438074;1250;112167;-40
2023/12/16 22:42:15;;;;;;;24.80;10.40;;;;;;;4.34;98.60;100278.83;438046;1250;107607;-40
2023/12/16 22:52:23;;;;;;;22.60;9.90;;;;;;;4.34;98.26;100261.91;438175;1245;99198;-40
2023/12/16 23:02:30;;;;;;;23.60;12.10;;;;;;;4.37;97.65;100264.69;437990;1244;108262;-40
2023/12/16 23:12:37;;;;;;;23.40;12.50;;;;;;;4.33;97.73;100260.26;438151;1244;98826;-38
2023/12/16 23:32:49;;;;;;;20.90;11.60;;;;;;;4.23;97.69;100250.36;437881;1244;109315;-41
2023/12/16 23:42:57;;;;;;;20.40;11.80;;;;;;;4.26;97.84;100228.64;438079;1250;99230;-40
2023/12/16 23:53:03;;;;;;;32.30;15.30;;;;;;;4.26;98.04;100220.40;438082;1249;109485;-40
